sensor_id;sensor_type;location;lat;lon;timestamp;P1;durP1;ratioP1;P2;durP2;ratioP2
37241;SDS011;23135;51.078;12.108;2023-04-08T00:01:58;4.68;;;3.45;;
37241;SDS011;23135;51.078;12.108;2023-04-08T00:04:23;4.65;;;3.30;;
37241;SDS011;23135;51.078;12.108;2023-04-08T00:06:49;5.35;;;3.35;;
37241;SDS011;23135;51.078;12.108;2023-04-08T00:09:15;4.78;;;3.50;;
37241;SDS011;23135;51.078;12.108;2023-04-08T00:11:40;5.05;;;3.72;;
37241;SDS011;23135;51.078;12.108;2023-04-08T00:14:06;4.55;;;3.40;;
37241;SDS011;23135;51.078;12.108;2023-04-08T00:16:32;4.97;;;3.15;;
37241;SDS011;23135;51.078;12.108;2023-04-08T00:18:57;4.97;;;3.55;;
37241;SDS011;23135;51.078;12.108;2023-04-08T00:21:23;6.45;;;3.72;;
37241;SDS011;23135;51.078;12.108;2023-04-08T00:23:49;6.05;;;4.20;;
37241;SDS011;23135;51.078;12.108;2023-04-08T00:26:14;5.40;;;4.18;;
37241;SDS011;23135;51.078;12.108;2023-04-08T00:28:40;6.68;;;4.13;;
37241;SDS011;23135;51.078;12.108;2023-04-08T00:31:07;6.78;;;4.38;;
37241;SDS011;23135;51.078;12.108;2023-04-08T00:33:33;6.68;;;4.18;;
37241;SDS011;23135;51.078;12.108;2023-04-08T00:35:58;7.00;;;4.22;;
37241;SDS011;23135;51.078;12.108;2023-04-08T00:38:24;6.65;;;4.65;;
37241;SDS011;23135;51.078;12.108;2023-04-08T00:40:49;6.82;;;4.15;;
37241;SDS011;23135;51.078;12.108;2023-04-08T00:43:15;6.18;;;4.03;;
37241;SDS011;23135;51.078;12.108;2023-04-08T00:45:41;6.00;;;3.60;;
37241;SDS011;23135;51.078;12.108;2023-04-08T00:48:06;7.00;;;4.50;;
37241;SDS011;23135;51.078;12.108;2023-04-08T00:50:32;4.95;;;4.07;;
37241;SDS011;23135;51.078;12.108;2023-04-08T00:52:57;7.00;;;4.13;;
37241;SDS011;23135;51.078;12.108;2023-04-08T00:55:23;5.10;;;3.63;;
37241;SDS011;23135;51.078;12.108;2023-04-08T00:57:48;4.72;;;3.60;;
37241;SDS011;23135;51.078;12.108;2023-04-08T01:00:14;7.35;;;3.90;;
37241;SDS011;23135;51.078;12.108;2023-04-08T01:05:24;6.95;;;5.35;;
37241;SDS011;23135;51.078;12.108;2023-04-08T01:07:56;7.78;;;5.60;;
37241;SDS011;23135;51.078;12.108;2023-04-08T01:10:27;6.70;;;4.45;;
37241;SDS011;23135;51.078;12.108;2023-04-08T01:12:56;6.03;;;4.75;;
37241;SDS011;23135;51.078;12.108;2023-04-08T01:15:25;6.65;;;4.60;;
37241;SDS011;23135;51.078;12.108;2023-04-08T01:17:53;5.82;;;4.22;;
37241;SDS011;23135;51.078;12.108;2023-04-08T01:20:20;4.90;;;3.63;;
37241;SDS011;23135;51.078;12.108;2023-04-08T01:23:01;6.20;;;3.80;;
37241;SDS011;23135;51.078;12.108;2023-04-08T01:25:35;6.78;;;3.03;;
37241;SDS011;23135;51.078;12.108;2023-04-08T01:28:12;5.57;;;3.72;;
37241;SDS011;23135;51.078;12.108;2023-04-08T01:30:41;4.32;;;3.08;;
37241;SDS011;23135;51.078;12.108;2023-04-08T01:33:12;4.57;;;3.35;;
37241;SDS011;23135;51.078;12.108;2023-04-08T01:35:39;3.40;;;2.70;;
37241;SDS011;23135;51.078;12.108;2023-04-08T01:38:06;3.67;;;2.88;;
37241;SDS011;23135;51.078;12.108;2023-04-08T01:40:35;3.75;;;2.67;;
37241;SDS011;23135;51.078;12.108;2023-04-08T01:43:05;4.43;;;3.15;;
37241;SDS011;23135;51.078;12.108;2023-04-08T01:45:32;5.30;;;2.92;;
37241;SDS011;23135;51.078;12.108;2023-04-08T01:47:58;6.60;;;3.08;;
37241;SDS011;23135;51.078;12.108;2023-04-08T01:50:25;5.03;;;3.00;;
37241;SDS011;23135;51.078;12.108;2023-04-08T01:52:52;5.32;;;3.38;;
37241;SDS011;23135;51.078;12.108;2023-04-08T01:55:20;4.53;;;3.00;;
37241;SDS011;23135;51.078;12.108;2023-04-08T01:57:49;4.63;;;3.15;;
37241;SDS011;23135;51.078;12.108;2023-04-08T02:00:21;5.00;;;3.25;;
37241;SDS011;23135;51.078;12.108;2023-04-08T02:02:49;7.15;;;3.92;;
37241;SDS011;23135;51.078;12.108;2023-04-08T02:05:16;5.60;;;3.80;;
37241;SDS011;23135;51.078;12.108;2023-04-08T02:07:42;5.43;;;3.10;;
37241;SDS011;23135;51.078;12.108;2023-04-08T02:10:09;6.45;;;3.85;;
37241;SDS011;23135;51.078;12.108;2023-04-08T02:12:35;4.80;;;2.72;;
37241;SDS011;23135;51.078;12.108;2023-04-08T02:15:01;5.45;;;3.08;;
37241;SDS011;23135;51.078;12.108;2023-04-08T02:17:33;4.93;;;2.92;;
37241;SDS011;23135;51.078;12.108;2023-04-08T02:20:06;4.90;;;2.90;;
37241;SDS011;23135;51.078;12.108;2023-04-08T02:23:05;6.45;;;3.45;;
37241;SDS011;23135;51.078;12.108;2023-04-08T02:25:33;5.55;;;3.13;;
37241;SDS011;23135;51.078;12.108;2023-04-08T02:28:02;4.93;;;2.60;;
37241;SDS011;23135;51.078;12.108;2023-04-08T02:30:30;6.68;;;2.60;;
37241;SDS011;23135;51.078;12.108;2023-04-08T02:32:56;5.40;;;3.75;;
37241;SDS011;23135;51.078;12.108;2023-04-08T02:35:22;5.32;;;3.38;;
37241;SDS011;23135;51.078;12.108;2023-04-08T02:37:48;4.82;;;2.92;;
37241;SDS011;23135;51.078;12.108;2023-04-08T02:40:30;4.75;;;2.88;;
37241;SDS011;23135;51.078;12.108;2023-04-08T02:42:57;9.50;;;3.67;;
37241;SDS011;23135;51.078;12.108;2023-04-08T02:45:24;4.47;;;2.47;;
37241;SDS011;23135;51.078;12.108;2023-04-08T02:47:53;6.30;;;3.72;;
37241;SDS011;23135;51.078;12.108;2023-04-08T02:50:18;4.18;;;2.83;;
37241;SDS011;23135;51.078;12.108;2023-04-08T02:52:44;3.60;;;2.83;;
37241;SDS011;23135;51.078;12.108;2023-04-08T02:55:09;4.82;;;3.22;;
37241;SDS011;23135;51.078;12.108;2023-04-08T02:57:35;5.53;;;3.45;;
37241;SDS011;23135;51.078;12.108;2023-04-08T03:00:03;4.55;;;3.15;;
37241;SDS011;23135;51.078;12.108;2023-04-08T03:02:29;4.50;;;2.92;;
37241;SDS011;23135;51.078;12.108;2023-04-08T03:04:55;4.10;;;2.47;;
37241;SDS011;23135;51.078;12.108;2023-04-08T03:07:20;4.32;;;2.78;;
37241;SDS011;23135;51.078;12.108;2023-04-08T03:09:46;4.63;;;2.53;;
37241;SDS011;23135;51.078;12.108;2023-04-08T03:12:11;5.80;;;2.72;;
37241;SDS011;23135;51.078;12.108;2023-04-08T03:14:37;6.90;;;3.88;;
37241;SDS011;23135;51.078;12.108;2023-04-08T03:17:02;6.10;;;3.13;;
37241;SDS011;23135;51.078;12.108;2023-04-08T03:19:28;5.28;;;3.25;;
37241;SDS011;23135;51.078;12.108;2023-04-08T03:21:53;4.97;;;3.33;;
37241;SDS011;23135;51.078;12.108;2023-04-08T03:24:19;7.07;;;3.13;;
37241;SDS011;23135;51.078;12.108;2023-04-08T03:26:45;9.07;;;3.22;;
37241;SDS011;23135;51.078;12.108;2023-04-08T03:29:10;4.82;;;3.13;;
37241;SDS011;23135;51.078;12.108;2023-04-08T03:31:36;6.72;;;3.78;;
37241;SDS011;23135;51.078;12.108;2023-04-08T03:34:01;6.78;;;4.05;;
37241;SDS011;23135;51.078;12.108;2023-04-08T03:36:27;6.15;;;3.38;;
37241;SDS011;23135;51.078;12.108;2023-04-08T03:38:52;7.90;;;3.92;;
37241;SDS011;23135;51.078;12.108;2023-04-08T03:41:18;6.70;;;3.88;;
37241;SDS011;23135;51.078;12.108;2023-04-08T03:43:43;9.23;;;5.15;;
37241;SDS011;23135;51.078;12.108;2023-04-08T03:46:09;12.68;;;5.80;;
37241;SDS011;23135;51.078;12.108;2023-04-08T03:48:35;12.75;;;6.47;;
37241;SDS011;23135;51.078;12.108;2023-04-08T03:51:01;15.60;;;7.30;;
37241;SDS011;23135;51.078;12.108;2023-04-08T03:53:26;15.77;;;6.57;;
37241;SDS011;23135;51.078;12.108;2023-04-08T03:55:53;8.85;;;5.47;;
37241;SDS011;23135;51.078;12.108;2023-04-08T03:58:19;9.85;;;5.55;;
37241;SDS011;23135;51.078;12.108;2023-04-08T04:00:45;11.18;;;5.32;;
37241;SDS011;23135;51.078;12.108;2023-04-08T04:03:11;7.80;;;4.18;;
37241;SDS011;23135;51.078;12.108;2023-04-08T04:05:37;8.13;;;4.82;;
37241;SDS011;23135;51.078;12.108;2023-04-08T04:08:03;6.85;;;4.13;;
37241;SDS011;23135;51.078;12.108;2023-04-08T04:10:29;7.05;;;3.92;;
37241;SDS011;23135;51.078;12.108;2023-04-08T04:12:54;8.02;;;4.82;;
37241;SDS011;23135;51.078;12.108;2023-04-08T04:15:20;6.40;;;4.05;;
37241;SDS011;23135;51.078;12.108;2023-04-08T04:17:49;8.50;;;4.50;;
37241;SDS011;23135;51.078;12.108;2023-04-08T04:20:15;8.60;;;4.97;;
37241;SDS011;23135;51.078;12.108;2023-04-08T04:22:41;10.60;;;5.10;;
37241;SDS011;23135;51.078;12.108;2023-04-08T04:25:07;6.78;;;3.97;;
37241;SDS011;23135;51.078;12.108;2023-04-08T04:27:33;6.65;;;3.83;;
37241;SDS011;23135;51.078;12.108;2023-04-08T04:30:00;6.20;;;3.88;;
37241;SDS011;23135;51.078;12.108;2023-04-08T04:32:26;4.85;;;3.17;;
37241;SDS011;23135;51.078;12.108;2023-04-08T04:34:52;7.80;;;3.60;;
37241;SDS011;23135;51.078;12.108;2023-04-08T04:37:17;5.45;;;3.53;;
37241;SDS011;23135;51.078;12.108;2023-04-08T04:39:43;4.30;;;3.42;;
37241;SDS011;23135;51.078;12.108;2023-04-08T04:42:09;4.78;;;2.55;;
37241;SDS011;23135;51.078;12.108;2023-04-08T04:44:35;5.20;;;2.50;;
37241;SDS011;23135;51.078;12.108;2023-04-08T04:47:01;4.22;;;2.47;;
37241;SDS011;23135;51.078;12.108;2023-04-08T04:49:26;7.78;;;3.08;;
37241;SDS011;23135;51.078;12.108;2023-04-08T04:51:52;5.43;;;2.20;;
37241;SDS011;23135;51.078;12.108;2023-04-08T04:54:17;5.88;;;2.22;;
37241;SDS011;23135;51.078;12.108;2023-04-08T04:56:43;7.22;;;2.90;;
37241;SDS011;23135;51.078;12.108;2023-04-08T04:59:08;3.22;;;1.88;;
37241;SDS011;23135;51.078;12.108;2023-04-08T05:01:34;5.07;;;2.08;;
37241;SDS011;23135;51.078;12.108;2023-04-08T05:04:00;5.35;;;2.20;;
37241;SDS011;23135;51.078;12.108;2023-04-08T05:06:25;4.88;;;2.15;;
37241;SDS011;23135;51.078;12.108;2023-04-08T05:08:51;3.80;;;2.35;;
37241;SDS011;23135;51.078;12.108;2023-04-08T05:11:17;3.65;;;1.98;;
37241;SDS011;23135;51.078;12.108;2023-04-08T05:13:43;4.38;;;2.13;;
37241;SDS011;23135;51.078;12.108;2023-04-08T05:16:09;3.42;;;1.92;;
37241;SDS011;23135;51.078;12.108;2023-04-08T05:18:35;4.43;;;2.13;;
37241;SDS011;23135;51.078;12.108;2023-04-08T05:21:01;4.57;;;2.42;;
37241;SDS011;23135;51.078;12.108;2023-04-08T05:23:27;4.65;;;2.38;;
37241;SDS011;23135;51.078;12.108;2023-04-08T05:25:52;6.53;;;2.47;;
37241;SDS011;23135;51.078;12.108;2023-04-08T05:28:18;3.50;;;1.63;;
37241;SDS011;23135;51.078;12.108;2023-04-08T05:30:51;4.70;;;2.03;;
37241;SDS011;23135;51.078;12.108;2023-04-08T05:33:17;3.40;;;1.58;;
37241;SDS011;23135;51.078;12.108;2023-04-08T05:35:43;3.53;;;2.00;;
37241;SDS011;23135;51.078;12.108;2023-04-08T05:38:08;6.13;;;2.40;;
37241;SDS011;23135;51.078;12.108;2023-04-08T05:40:34;2.88;;;1.98;;
37241;SDS011;23135;51.078;12.108;2023-04-08T05:43:00;6.10;;;2.55;;
37241;SDS011;23135;51.078;12.108;2023-04-08T05:45:26;4.10;;;1.98;;
37241;SDS011;23135;51.078;12.108;2023-04-08T05:47:52;7.03;;;3.50;;
37241;SDS011;23135;51.078;12.108;2023-04-08T05:50:18;4.55;;;2.28;;
37241;SDS011;23135;51.078;12.108;2023-04-08T05:52:44;5.43;;;3.00;;
37241;SDS011;23135;51.078;12.108;2023-04-08T05:55:10;6.30;;;3.13;;
37241;SDS011;23135;51.078;12.108;2023-04-08T05:57:37;7.50;;;3.78;;
37241;SDS011;23135;51.078;12.108;2023-04-08T06:00:06;7.22;;;3.22;;
37241;SDS011;23135;51.078;12.108;2023-04-08T06:02:34;8.23;;;3.83;;
37241;SDS011;23135;51.078;12.108;2023-04-08T06:05:00;7.20;;;2.75;;
37241;SDS011;23135;51.078;12.108;2023-04-08T06:07:27;9.02;;;3.58;;
37241;SDS011;23135;51.078;12.108;2023-04-08T06:09:53;7.40;;;3.28;;
37241;SDS011;23135;51.078;12.108;2023-04-08T06:12:19;6.35;;;3.33;;
37241;SDS011;23135;51.078;12.108;2023-04-08T06:14:45;6.93;;;3.13;;
37241;SDS011;23135;51.078;12.108;2023-04-08T06:17:10;3.95;;;2.58;;
37241;SDS011;23135;51.078;12.108;2023-04-08T06:19:36;7.45;;;3.17;;
37241;SDS011;23135;51.078;12.108;2023-04-08T06:22:01;4.72;;;2.20;;
37241;SDS011;23135;51.078;12.108;2023-04-08T06:24:27;6.13;;;2.80;;
37241;SDS011;23135;51.078;12.108;2023-04-08T06:26:53;3.65;;;2.47;;
37241;SDS011;23135;51.078;12.108;2023-04-08T06:29:20;9.77;;;5.05;;
37241;SDS011;23135;51.078;12.108;2023-04-08T06:31:46;6.47;;;3.42;;
37241;SDS011;23135;51.078;12.108;2023-04-08T06:34:12;8.38;;;4.32;;
37241;SDS011;23135;51.078;12.108;2023-04-08T06:36:38;7.55;;;4.32;;
37241;SDS011;23135;51.078;12.108;2023-04-08T06:39:03;7.85;;;3.97;;
37241;SDS011;23135;51.078;12.108;2023-04-08T06:41:29;15.02;;;8.98;;
37241;SDS011;23135;51.078;12.108;2023-04-08T06:43:55;34.00;;;19.90;;
37241;SDS011;23135;51.078;12.108;2023-04-08T06:46:20;11.43;;;6.97;;
37241;SDS011;23135;51.078;12.108;2023-04-08T06:48:46;9.85;;;4.78;;
37241;SDS011;23135;51.078;12.108;2023-04-08T06:51:11;12.13;;;9.38;;
37241;SDS011;23135;51.078;12.108;2023-04-08T06:53:37;20.13;;;11.90;;
37241;SDS011;23135;51.078;12.108;2023-04-08T06:56:03;8.70;;;4.55;;
37241;SDS011;23135;51.078;12.108;2023-04-08T06:58:28;6.18;;;5.03;;
37241;SDS011;23135;51.078;12.108;2023-04-08T07:00:54;6.20;;;3.40;;
37241;SDS011;23135;51.078;12.108;2023-04-08T07:03:20;6.10;;;3.22;;
37241;SDS011;23135;51.078;12.108;2023-04-08T07:05:46;7.38;;;4.20;;
37241;SDS011;23135;51.078;12.108;2023-04-08T07:08:12;6.80;;;4.25;;
37241;SDS011;23135;51.078;12.108;2023-04-08T07:10:37;3.90;;;2.42;;
37241;SDS011;23135;51.078;12.108;2023-04-08T07:13:03;5.20;;;3.03;;
37241;SDS011;23135;51.078;12.108;2023-04-08T07:15:28;2.47;;;2.13;;
37241;SDS011;23135;51.078;12.108;2023-04-08T07:17:54;3.63;;;1.90;;
37241;SDS011;23135;51.078;12.108;2023-04-08T07:20:21;3.95;;;2.42;;
37241;SDS011;23135;51.078;12.108;2023-04-08T07:22:47;5.80;;;3.30;;
37241;SDS011;23135;51.078;12.108;2023-04-08T07:25:13;7.80;;;4.32;;
37241;SDS011;23135;51.078;12.108;2023-04-08T07:27:38;4.57;;;2.53;;
37241;SDS011;23135;51.078;12.108;2023-04-08T07:30:04;4.22;;;2.00;;
37241;SDS011;23135;51.078;12.108;2023-04-08T07:32:31;3.88;;;2.03;;
37241;SDS011;23135;51.078;12.108;2023-04-08T07:34:57;3.83;;;2.25;;
37241;SDS011;23135;51.078;12.108;2023-04-08T07:37:24;5.05;;;2.58;;
37241;SDS011;23135;51.078;12.108;2023-04-08T07:39:49;4.78;;;2.47;;
37241;SDS011;23135;51.078;12.108;2023-04-08T07:42:15;4.35;;;3.15;;
37241;SDS011;23135;51.078;12.108;2023-04-08T07:44:40;7.10;;;3.78;;
37241;SDS011;23135;51.078;12.108;2023-04-08T07:47:06;9.25;;;4.97;;
37241;SDS011;23135;51.078;12.108;2023-04-08T07:49:33;6.80;;;3.25;;
37241;SDS011;23135;51.078;12.108;2023-04-08T07:51:58;8.07;;;5.22;;
37241;SDS011;23135;51.078;12.108;2023-04-08T07:56:52;9.68;;;5.80;;
37241;SDS011;23135;51.078;12.108;2023-04-08T07:59:18;10.63;;;5.88;;
37241;SDS011;23135;51.078;12.108;2023-04-08T08:01:43;9.18;;;4.88;;
37241;SDS011;23135;51.078;12.108;2023-04-08T08:04:10;16.92;;;9.93;;
37241;SDS011;23135;51.078;12.108;2023-04-08T08:06:36;46.38;;;28.55;;
37241;SDS011;23135;51.078;12.108;2023-04-08T08:09:02;29.13;;;19.75;;
37241;SDS011;23135;51.078;12.108;2023-04-08T08:11:27;28.45;;;13.85;;
37241;SDS011;23135;51.078;12.108;2023-04-08T08:13:53;16.20;;;8.25;;
37241;SDS011;23135;51.078;12.108;2023-04-08T08:16:18;24.27;;;12.60;;
37241;SDS011;23135;51.078;12.108;2023-04-08T08:18:44;13.68;;;7.47;;
37241;SDS011;23135;51.078;12.108;2023-04-08T08:21:09;11.93;;;6.03;;
37241;SDS011;23135;51.078;12.108;2023-04-08T08:23:35;15.60;;;7.72;;
37241;SDS011;23135;51.078;12.108;2023-04-08T08:26:02;12.77;;;7.82;;
37241;SDS011;23135;51.078;12.108;2023-04-08T08:28:30;11.32;;;6.28;;
37241;SDS011;23135;51.078;12.108;2023-04-08T08:30:56;12.68;;;5.60;;
37241;SDS011;23135;51.078;12.108;2023-04-08T08:33:22;11.57;;;6.18;;
37241;SDS011;23135;51.078;12.108;2023-04-08T08:35:48;10.25;;;5.70;;
37241;SDS011;23135;51.078;12.108;2023-04-08T08:38:14;12.40;;;6.63;;
37241;SDS011;23135;51.078;12.108;2023-04-08T08:40:41;13.30;;;6.57;;
37241;SDS011;23135;51.078;12.108;2023-04-08T08:43:08;18.25;;;9.30;;
37241;SDS011;23135;51.078;12.108;2023-04-08T08:45:37;18.13;;;8.73;;
37241;SDS011;23135;51.078;12.108;2023-04-08T08:48:06;16.90;;;11.88;;
37241;SDS011;23135;51.078;12.108;2023-04-08T08:50:33;19.13;;;9.73;;
37241;SDS011;23135;51.078;12.108;2023-04-08T08:52:59;15.60;;;9.55;;
37241;SDS011;23135;51.078;12.108;2023-04-08T08:55:28;19.20;;;10.90;;
37241;SDS011;23135;51.078;12.108;2023-04-08T08:57:55;17.42;;;8.52;;
37241;SDS011;23135;51.078;12.108;2023-04-08T09:00:31;24.88;;;11.20;;
37241;SDS011;23135;51.078;12.108;2023-04-08T09:03:17;20.45;;;10.32;;
37241;SDS011;23135;51.078;12.108;2023-04-08T09:05:50;18.77;;;10.32;;
37241;SDS011;23135;51.078;12.108;2023-04-08T09:11:15;25.05;;;11.77;;
37241;SDS011;23135;51.078;12.108;2023-04-08T09:13:45;19.70;;;10.73;;
37241;SDS011;23135;51.078;12.108;2023-04-08T09:16:14;20.77;;;10.70;;
37241;SDS011;23135;51.078;12.108;2023-04-08T09:18:42;22.65;;;11.68;;
37241;SDS011;23135;51.078;12.108;2023-04-08T09:21:13;21.23;;;11.38;;
37241;SDS011;23135;51.078;12.108;2023-04-08T09:23:42;23.50;;;12.75;;
37241;SDS011;23135;51.078;12.108;2023-04-08T09:28:42;23.08;;;13.30;;
37241;SDS011;23135;51.078;12.108;2023-04-08T09:31:18;22.75;;;12.40;;
37241;SDS011;23135;51.078;12.108;2023-04-08T09:33:45;23.20;;;13.45;;
37241;SDS011;23135;51.078;12.108;2023-04-08T09:36:11;28.05;;;14.32;;
37241;SDS011;23135;51.078;12.108;2023-04-08T09:38:38;26.83;;;14.43;;
37241;SDS011;23135;51.078;12.108;2023-04-08T09:41:05;27.25;;;13.38;;
37241;SDS011;23135;51.078;12.108;2023-04-08T09:43:33;24.77;;;13.75;;
37241;SDS011;23135;51.078;12.108;2023-04-08T09:46:04;27.10;;;13.48;;
37241;SDS011;23135;51.078;12.108;2023-04-08T09:48:36;25.65;;;14.63;;
37241;SDS011;23135;51.078;12.108;2023-04-08T09:51:06;24.60;;;13.07;;
37241;SDS011;23135;51.078;12.108;2023-04-08T09:53:37;22.70;;;12.52;;
37241;SDS011;23135;51.078;12.108;2023-04-08T09:56:09;20.42;;;12.52;;
37241;SDS011;23135;51.078;12.108;2023-04-08T10:01:52;22.40;;;13.18;;
37241;SDS011;23135;51.078;12.108;2023-04-08T10:04:19;21.10;;;12.95;;
37241;SDS011;23135;51.078;12.108;2023-04-08T10:06:56;24.38;;;13.25;;
37241;SDS011;23135;51.078;12.108;2023-04-08T10:09:25;23.10;;;13.60;;
37241;SDS011;23135;51.078;12.108;2023-04-08T10:11:52;27.45;;;15.75;;
37241;SDS011;23135;51.078;12.108;2023-04-08T10:14:18;20.92;;;13.05;;
37241;SDS011;23135;51.078;12.108;2023-04-08T10:16:46;25.65;;;13.70;;
37241;SDS011;23135;51.078;12.108;2023-04-08T10:27:41;26.45;;;15.80;;
37241;SDS011;23135;51.078;12.108;2023-04-08T10:32:51;25.05;;;15.23;;
37241;SDS011;23135;51.078;12.108;2023-04-08T10:35:29;23.17;;;14.02;;
37241;SDS011;23135;51.078;12.108;2023-04-08T10:37:55;25.45;;;16.52;;
37241;SDS011;23135;51.078;12.108;2023-04-08T10:40:22;30.90;;;18.33;;
37241;SDS011;23135;51.078;12.108;2023-04-08T10:42:53;31.27;;;16.00;;
37241;SDS011;23135;51.078;12.108;2023-04-08T10:45:19;25.80;;;16.23;;
37241;SDS011;23135;51.078;12.108;2023-04-08T10:47:45;52.92;;;28.52;;
37241;SDS011;23135;51.078;12.108;2023-04-08T10:50:11;36.28;;;20.75;;
37241;SDS011;23135;51.078;12.108;2023-04-08T10:52:51;30.98;;;16.95;;
37241;SDS011;23135;51.078;12.108;2023-04-08T10:55:21;35.78;;;19.10;;
37241;SDS011;23135;51.078;12.108;2023-04-08T10:57:49;32.28;;;18.08;;
37241;SDS011;23135;51.078;12.108;2023-04-08T11:00:19;39.10;;;21.45;;
37241;SDS011;23135;51.078;12.108;2023-04-08T11:03:03;30.45;;;18.33;;
37241;SDS011;23135;51.078;12.108;2023-04-08T11:05:33;50.20;;;31.85;;
37241;SDS011;23135;51.078;12.108;2023-04-08T11:08:00;28.40;;;16.40;;
37241;SDS011;23135;51.078;12.108;2023-04-08T11:10:27;61.72;;;33.03;;
37241;SDS011;23135;51.078;12.108;2023-04-08T11:12:56;33.55;;;19.70;;
37241;SDS011;23135;51.078;12.108;2023-04-08T11:15:25;42.85;;;24.23;;
37241;SDS011;23135;51.078;12.108;2023-04-08T11:17:54;35.17;;;19.50;;
37241;SDS011;23135;51.078;12.108;2023-04-08T11:20:20;29.90;;;16.80;;
37241;SDS011;23135;51.078;12.108;2023-04-08T11:22:46;105.88;;;51.03;;
37241;SDS011;23135;51.078;12.108;2023-04-08T11:25:12;48.58;;;24.17;;
37241;SDS011;23135;51.078;12.108;2023-04-08T11:27:38;27.02;;;15.13;;
37241;SDS011;23135;51.078;12.108;2023-04-08T11:30:05;30.92;;;16.95;;
37241;SDS011;23135;51.078;12.108;2023-04-08T11:32:32;31.85;;;17.58;;
37241;SDS011;23135;51.078;12.108;2023-04-08T11:34:59;59.65;;;30.60;;
37241;SDS011;23135;51.078;12.108;2023-04-08T11:37:26;70.15;;;32.95;;
37241;SDS011;23135;51.078;12.108;2023-04-08T11:40:11;30.30;;;18.08;;
37241;SDS011;23135;51.078;12.108;2023-04-08T11:42:37;33.05;;;17.67;;
37241;SDS011;23135;51.078;12.108;2023-04-08T11:45:10;36.00;;;20.25;;
37241;SDS011;23135;51.078;12.108;2023-04-08T11:47:36;65.50;;;36.80;;
37241;SDS011;23135;51.078;12.108;2023-04-08T11:50:03;33.67;;;18.33;;
37241;SDS011;23135;51.078;12.108;2023-04-08T11:52:42;60.70;;;33.80;;
37241;SDS011;23135;51.078;12.108;2023-04-08T11:55:09;64.20;;;34.90;;
37241;SDS011;23135;51.078;12.108;2023-04-08T11:57:36;37.97;;;21.10;;
37241;SDS011;23135;51.078;12.108;2023-04-08T12:00:02;41.10;;;21.58;;
37241;SDS011;23135;51.078;12.108;2023-04-08T12:02:30;33.35;;;19.58;;
37241;SDS011;23135;51.078;12.108;2023-04-08T12:04:55;42.97;;;22.73;;
37241;SDS011;23135;51.078;12.108;2023-04-08T12:07:21;31.83;;;18.08;;
37241;SDS011;23135;51.078;12.108;2023-04-08T12:09:46;37.80;;;20.30;;
37241;SDS011;23135;51.078;12.108;2023-04-08T12:12:12;35.10;;;20.25;;
37241;SDS011;23135;51.078;12.108;2023-04-08T12:14:37;30.30;;;17.05;;
37241;SDS011;23135;51.078;12.108;2023-04-08T12:17:03;33.70;;;18.90;;
37241;SDS011;23135;51.078;12.108;2023-04-08T12:19:28;37.17;;;20.38;;
37241;SDS011;23135;51.078;12.108;2023-04-08T12:21:54;35.00;;;19.58;;
37241;SDS011;23135;51.078;12.108;2023-04-08T12:24:20;35.47;;;20.92;;
37241;SDS011;23135;51.078;12.108;2023-04-08T12:26:45;35.83;;;20.70;;
37241;SDS011;23135;51.078;12.108;2023-04-08T12:29:11;38.10;;;21.35;;
37241;SDS011;23135;51.078;12.108;2023-04-08T12:31:37;39.88;;;21.08;;
37241;SDS011;23135;51.078;12.108;2023-04-08T12:34:02;35.10;;;20.23;;
37241;SDS011;23135;51.078;12.108;2023-04-08T12:36:28;33.95;;;20.23;;
37241;SDS011;23135;51.078;12.108;2023-04-08T12:38:53;32.33;;;19.95;;
37241;SDS011;23135;51.078;12.108;2023-04-08T12:41:19;33.50;;;18.35;;
37241;SDS011;23135;51.078;12.108;2023-04-08T12:43:45;32.45;;;18.67;;
37241;SDS011;23135;51.078;12.108;2023-04-08T12:46:11;35.53;;;19.75;;
37241;SDS011;23135;51.078;12.108;2023-04-08T12:48:37;31.13;;;18.33;;
37241;SDS011;23135;51.078;12.108;2023-04-08T12:51:02;30.70;;;18.45;;
37241;SDS011;23135;51.078;12.108;2023-04-08T12:53:28;26.65;;;16.70;;
37241;SDS011;23135;51.078;12.108;2023-04-08T12:55:54;32.58;;;19.17;;
37241;SDS011;23135;51.078;12.108;2023-04-08T12:58:21;33.28;;;20.23;;
37241;SDS011;23135;51.078;12.108;2023-04-08T13:00:49;36.80;;;20.15;;
37241;SDS011;23135;51.078;12.108;2023-04-08T13:03:14;37.28;;;21.00;;
37241;SDS011;23135;51.078;12.108;2023-04-08T13:05:41;39.97;;;22.27;;
37241;SDS011;23135;51.078;12.108;2023-04-08T13:08:07;29.05;;;17.77;;
37241;SDS011;23135;51.078;12.108;2023-04-08T13:10:33;50.78;;;30.38;;
37241;SDS011;23135;51.078;12.108;2023-04-08T13:12:58;54.03;;;28.58;;
37241;SDS011;23135;51.078;12.108;2023-04-08T13:15:24;53.40;;;29.45;;
37241;SDS011;23135;51.078;12.108;2023-04-08T13:17:50;65.97;;;37.50;;
37241;SDS011;23135;51.078;12.108;2023-04-08T13:20:16;46.28;;;26.63;;
37241;SDS011;23135;51.078;12.108;2023-04-08T13:22:41;38.03;;;21.02;;
37241;SDS011;23135;51.078;12.108;2023-04-08T13:25:07;32.83;;;18.92;;
37241;SDS011;23135;51.078;12.108;2023-04-08T13:27:32;36.67;;;23.30;;
37241;SDS011;23135;51.078;12.108;2023-04-08T13:29:58;39.05;;;22.30;;
37241;SDS011;23135;51.078;12.108;2023-04-08T13:32:24;32.15;;;19.05;;
37241;SDS011;23135;51.078;12.108;2023-04-08T13:34:50;38.90;;;20.35;;
37241;SDS011;23135;51.078;12.108;2023-04-08T13:37:15;39.33;;;21.50;;
37241;SDS011;23135;51.078;12.108;2023-04-08T13:39:41;35.05;;;20.75;;
37241;SDS011;23135;51.078;12.108;2023-04-08T13:42:06;33.17;;;19.05;;
37241;SDS011;23135;51.078;12.108;2023-04-08T13:44:32;29.05;;;18.45;;
37241;SDS011;23135;51.078;12.108;2023-04-08T13:46:58;27.75;;;16.75;;
37241;SDS011;23135;51.078;12.108;2023-04-08T13:49:24;30.55;;;17.55;;
37241;SDS011;23135;51.078;12.108;2023-04-08T13:51:50;28.05;;;16.83;;
37241;SDS011;23135;51.078;12.108;2023-04-08T13:54:15;26.25;;;16.25;;
37241;SDS011;23135;51.078;12.108;2023-04-08T13:56:41;29.20;;;16.88;;
37241;SDS011;23135;51.078;12.108;2023-04-08T13:59:06;26.35;;;16.45;;
37241;SDS011;23135;51.078;12.108;2023-04-08T14:01:34;25.55;;;15.10;;
37241;SDS011;23135;51.078;12.108;2023-04-08T14:03:59;31.20;;;19.25;;
37241;SDS011;23135;51.078;12.108;2023-04-08T14:06:25;33.67;;;19.73;;
37241;SDS011;23135;51.078;12.108;2023-04-08T14:08:51;32.50;;;18.58;;
37241;SDS011;23135;51.078;12.108;2023-04-08T14:11:16;27.40;;;16.95;;
37241;SDS011;23135;51.078;12.108;2023-04-08T14:13:42;29.77;;;17.75;;
37241;SDS011;23135;51.078;12.108;2023-04-08T14:16:08;32.38;;;19.73;;
37241;SDS011;23135;51.078;12.108;2023-04-08T14:18:34;32.10;;;17.73;;
37241;SDS011;23135;51.078;12.108;2023-04-08T14:20:59;28.02;;;17.10;;
37241;SDS011;23135;51.078;12.108;2023-04-08T14:23:25;29.15;;;17.45;;
37241;SDS011;23135;51.078;12.108;2023-04-08T14:25:50;30.67;;;16.30;;
37241;SDS011;23135;51.078;12.108;2023-04-08T14:28:16;29.80;;;17.92;;
37241;SDS011;23135;51.078;12.108;2023-04-08T14:30:41;26.48;;;17.00;;
37241;SDS011;23135;51.078;12.108;2023-04-08T14:33:07;29.50;;;17.92;;
37241;SDS011;23135;51.078;12.108;2023-04-08T14:35:33;36.13;;;20.80;;
37241;SDS011;23135;51.078;12.108;2023-04-08T14:37:58;158.65;;;86.63;;
37241;SDS011;23135;51.078;12.108;2023-04-08T14:40:24;172.10;;;95.72;;
37241;SDS011;23135;51.078;12.108;2023-04-08T14:42:50;72.05;;;39.50;;
37241;SDS011;23135;51.078;12.108;2023-04-08T14:45:16;39.95;;;23.75;;
37241;SDS011;23135;51.078;12.108;2023-04-08T14:47:41;39.15;;;21.52;;